Arcadia Highway — 3FQT4 — position and weather

sailwx.info

Track history (hours):
 
Tides and Currents Weather Stations Pressure Air Temp Water Temp Dewpoint Dewpoint Depression Visibility Wind Speed Wind Dir Waves Ship Positions

Arcadia Highway

Last reported at 2017-Apr-23 12:29 UTC. Time now 2017-Apr-28 00:31 UTC.
Position N 49°38' W 008°00'.

Length 179 m; draft 8.9 m.

Type: Cargo ship. MMSI: 354342000.

Date/timePositionNaut miles runAvg speedWind from/ knotsBaromVisibWave heightAir tempDewpointWater temp
2017-Apr-23 12:29N 49°38' W 008°00'4815.2
2017-Apr-23 09:20N 49°43' W 006°47'2016.0
2017-Apr-23 08:07N 49°43' W 006°16'416.1
2017-Apr-23 07:52N 49°43' W 006°10'616.1
2017-Apr-23 07:30N 49°43' W 006°01'816.0
2017-Apr-23 06:59N 49°43' W 005°48'1516.1
2017-Apr-23 06:02N 49°43' W 005°25'015.9
2017-Apr-23 06:00N 49°43' W 005°24'1415.1
2017-Apr-23 05:06N 49°42' W 005°03'114.5
2017-Apr-23 05:00N 49°42' W 005°01'814.6
2017-Apr-23 04:27N 49°44' W 004°49'814.6
2017-Apr-23 03:54N 49°46' W 004°37'614.7
2017-Apr-23 03:30N 49°48' W 004°28'714.9
2017-Apr-23 03:00N 49°49' W 004°17'714.9
2017-Apr-23 02:30N 49°51' W 004°06'815.0
2017-Apr-23 02:00N 49°52' W 003°54'815.3
2017-Apr-23 01:30N 49°54' W 003°42'815.6
2017-Apr-23 01:00N 49°55' W 003°31'816.0
2017-Apr-23 00:30N 49°57' W 003°18'816.3
2017-Apr-23 00:00N 49°59' W 003°06'816.5
2017-Apr-22 23:30N 49°59' W 002°53'917.0
2017-Apr-22 23:00N 50°02' W 002°40'817.3
2017-Apr-22 22:30N 50°05' W 002°28'917.4
2017-Apr-22 22:00N 50°08' W 002°16'2316.8
2017-Apr-22 20:39N 50°19' W 001°44'1415.7
2017-Apr-22 19:46N 50°25' W 001°24'415.1
2017-Apr-22 19:30N 50°27' W 001°19'714.6
2017-Apr-22 19:01N 50°31' W 001°09'713.8
2017-Apr-22 18:30N 50°34' W 000°60'612.4
2017-Apr-22 18:01N 50°40' W 000°58'4 8.5
2017-Apr-22 17:31N 50°44' W 001°03'815.5
2017-Apr-22 17:01N 50°46' W 001°15'5 9.7
2017-Apr-22 16:30N 50°50' W 001°19'4 8.7
2017-Apr-22 16:00N 50°53' W 001°24'0 0.5
2017-Apr-22 15:29N 50°53' W 001°24'0 0.0
2017-Apr-22 14:59N 50°53' W 001°24'0 0.0
2017-Apr-22 14:30N 50°53' W 001°24'0 0.0
2017-Apr-22 13:31N 50°53' W 001°24'0 0.0
2017-Apr-22 13:01N 50°53' W 001°24'0 0.0
2017-Apr-22 12:31N 50°53' W 001°24'0 0.0
2017-Apr-22 12:01N 50°53' W 001°24'0 0.0
2017-Apr-22 11:30N 50°53' W 001°24'0 0.0
2017-Apr-22 11:01N 50°53' W 001°24'0 0.0
2017-Apr-22 10:30N 50°53' W 001°24'0 0.0
2017-Apr-22 10:01N 50°53' W 001°24'0 0.0
2017-Apr-22 09:31N 50°53' W 001°24'0 0.0
2017-Apr-22 09:00N 50°53' W 001°24'0 0.0
2017-Apr-22 08:31N 50°53' W 001°24'0 0.0
2017-Apr-22 08:01N 50°53' W 001°24'0 0.0
2017-Apr-22 07:31N 50°53' W 001°24'0 0.0
2017-Apr-22 07:01N 50°53' W 001°24'0 0.0
2017-Apr-22 06:31N 50°53' W 001°24'0 0.0
2017-Apr-22 06:01N 50°53' W 001°24'0 0.0
2017-Apr-22 05:30N 50°53' W 001°24'0 0.0
2017-Apr-22 05:00N 50°53' W 001°24'0 0.0
2017-Apr-22 04:30N 50°53' W 001°24'0 0.0
2017-Apr-22 04:01N 50°53' W 001°24'0 0.0
2017-Apr-22 03:30N 50°53' W 001°24'0 0.0
2017-Apr-22 03:00N 50°53' W 001°24'0 0.0
2017-Apr-22 02:31N 50°53' W 001°24'0 0.0
2017-Apr-22 02:01N 50°53' W 001°24'0 0.0
2017-Apr-22 01:31N 50°53' W 001°24'0 0.0
2017-Apr-22 01:00N 50°53' W 001°24'0 0.0
2017-Apr-22 00:31N 50°53' W 001°24'0 0.0
2017-Apr-22 00:01N 50°53' W 001°24'0 0.0
2017-Apr-21 23:31N 50°53' W 001°24'0 0.0
2017-Apr-21 23:01N 50°53' W 001°24'0 0.2
2017-Apr-21 22:31N 50°53' W 001°24'2 5.0
2017-Apr-21 22:01N 50°51' W 001°21'4 7.6
2017-Apr-21 21:31N 50°48' W 001°17'3 6.8
2017-Apr-21 21:00N 50°46' W 001°14'613.0
2017-Apr-21 20:31N 50°44' W 001°04'611.6
2017-Apr-21 20:01N 50°41' W 000°57'5 9.0
2017-Apr-21 19:31N 50°38' W 000°50'510.7
2017-Apr-21 19:00N 50°37' W 000°42'510.3
2017-Apr-21 18:31N 50°35' W 000°35'3 5.9
2017-Apr-21 18:00N 50°35' W 000°30'611.4
2017-Apr-21 17:30N 50°33' W 000°21'714.0
2017-Apr-21 17:00N 50°33' W 000°10'713.6
2017-Apr-21 16:30N 50°32' E 000°00'713.8
2017-Apr-21 16:00N 50°34' E 000°11'714.0
2017-Apr-21 15:31N 50°37' E 000°21'815.3
2017-Apr-21 15:01N 50°38' E 000°33'816.3
2017-Apr-21 14:31N 50°43' E 000°43'1717.0
2017-Apr-21 13:31N 50°53' E 001°05'917.5
2017-Apr-21 13:00N 50°59' E 001°16'917.5
2017-Apr-21 12:31N 51°04' E 001°27'917.3
2017-Apr-21 12:01N 51°09' E 001°38'816.5
2017-Apr-21 11:31N 51°15' E 001°47'816.2
2017-Apr-21 11:01N 51°22' E 001°54'815.7
2017-Apr-21 10:31N 51°29' E 002°00'815.4
2017-Apr-21 10:00N 51°34' E 002°09'815.2
2017-Apr-21 09:30N 51°40' E 002°17'6915.9
2017-Apr-21 05:08N 52°35' E 003°26'216.4
2017-Apr-21 05:00N 52°37' E 003°28'916.8
2017-Apr-21 04:28N 52°44' E 003°37'816.6
2017-Apr-21 04:01N 52°50' E 003°45'816.5
2017-Apr-21 03:30N 52°56' E 003°54'816.3
2017-Apr-21 03:01N 53°01' E 004°04'816.1
2017-Apr-21 02:31N 53°06' E 004°14'815.4
2017-Apr-21 02:00N 53°12' E 004°24'815.3
2017-Apr-21 01:30N 53°19' E 004°29'1414.3
2017-Apr-21 00:33N 53°29' E 004°44'414.7
2017-Apr-21 00:17N 53°31' E 004°50'10514.9
2017-Apr-20 17:13N 53°59' E 007°41'315.0
2017-Apr-20 17:00N 53°56' E 007°43'611.1
2017-Apr-20 16:25N 53°53' E 007°53'4 9.0
2017-Apr-20 16:00N 53°52' E 007°59'612.7
2017-Apr-20 15:30N 53°48' E 008°08'612.9
2017-Apr-20 15:00N 53°44' E 008°15'1211.9
2017-Apr-20 14:00N 53°36' E 008°31'3 5.1
2017-Apr-20 13:31N 53°34' E 008°33'0 0.9
2017-Apr-20 13:00N 53°34' E 008°33'0 0.7
2017-Apr-20 12:28N 53°35' E 008°33'0 0.0
2017-Apr-20 11:55N 53°35' E 008°33'0 0.0
2017-Apr-20 11:28N 53°35' E 008°33'0 0.0
2017-Apr-20 10:58N 53°35' E 008°33'0 0.0
2017-Apr-20 10:25N 53°35' E 008°33'0 0.0
2017-Apr-20 09:58N 53°35' E 008°33'0 0.0
2017-Apr-20 09:28N 53°35' E 008°33'0 0.0
2017-Apr-20 08:58N 53°35' E 008°33'0 0.0
2017-Apr-20 08:28N 53°35' E 008°33'0 0.0
2017-Apr-20 07:58N 53°35' E 008°33'0 0.0
2017-Apr-20 07:28N 53°35' E 008°33'0 0.0
2017-Apr-20 06:58N 53°35' E 008°33'0 0.0
2017-Apr-20 06:28N 53°35' E 008°33'0 0.0
2017-Apr-20 05:58N 53°35' E 008°33'0 0.0
2017-Apr-20 05:28N 53°35' E 008°33'0 0.0
2017-Apr-20 04:58N 53°35' E 008°33'0 0.0
2017-Apr-20 04:28N 53°35' E 008°33'0 0.0
2017-Apr-20 03:58N 53°35' E 008°33'0 0.0
2017-Apr-20 03:28N 53°35' E 008°33'0 0.0
2017-Apr-20 02:58N 53°35' E 008°33'0 0.0
2017-Apr-20 02:28N 53°35' E 008°33'0 0.0
2017-Apr-20 01:58N 53°35' E 008°33'0 0.0
2017-Apr-20 01:28N 53°35' E 008°33'0 0.0
2017-Apr-20 00:58N 53°35' E 008°33'0 0.0
2017-Apr-20 00:28N 53°35' E 008°33'0 0.0
2017-Apr-19 23:55N 53°35' E 008°33'0 0.0
2017-Apr-19 23:25N 53°35' E 008°33'0 0.0
2017-Apr-19 22:58N 53°35' E 008°33'0 0.0
2017-Apr-19 22:28N 53°35' E 008°33'0 0.0
2017-Apr-19 21:58N 53°35' E 008°33'0 0.0
2017-Apr-19 21:28N 53°35' E 008°33'0 0.0
2017-Apr-19 20:58N 53°35' E 008°33'0 0.0
2017-Apr-19 20:28N 53°35' E 008°33'0 0.0
2017-Apr-19 19:58N 53°35' E 008°33'0 0.0
2017-Apr-19 19:28N 53°35' E 008°33'0 0.0
2017-Apr-19 18:58N 53°35' E 008°33'0 0.0
2017-Apr-19 18:28N 53°35' E 008°33'0 0.0
2017-Apr-19 17:58N 53°35' E 008°33'0 0.0
2017-Apr-19 17:28N 53°35' E 008°33'0 0.0
2017-Apr-19 16:58N 53°35' E 008°33'0 0.0
2017-Apr-19 16:28N 53°35' E 008°33'0 0.0
2017-Apr-19 15:58N 53°35' E 008°33'0 0.0
2017-Apr-19 15:28N 53°35' E 008°33'0 0.0
2017-Apr-19 14:58N 53°35' E 008°33'0 0.0
2017-Apr-19 14:28N 53°35' E 008°33'0 0.0
2017-Apr-19 13:25N 53°35' E 008°33'0 0.0
2017-Apr-19 12:58N 53°35' E 008°33'0 0.0
2017-Apr-19 12:28N 53°35' E 008°33'0 0.0
2017-Apr-19 11:58N 53°35' E 008°33'0 0.0
2017-Apr-19 11:28N 53°35' E 008°33'0 0.0
2017-Apr-19 10:58N 53°35' E 008°33'0 0.0
2017-Apr-19 10:28N 53°35' E 008°33'0 0.0
2017-Apr-19 09:58N 53°35' E 008°33'0 0.0
2017-Apr-19 09:28N 53°35' E 008°33'0 0.0
2017-Apr-19 08:58N 53°35' E 008°33'0 0.0
2017-Apr-19 08:28N 53°35' E 008°33'0 0.0
2017-Apr-19 07:58N 53°35' E 008°33'0 0.0
2017-Apr-19 07:28N 53°35' E 008°33'0 0.0
2017-Apr-19 06:58N 53°35' E 008°33'0 0.0
2017-Apr-19 06:25N 53°35' E 008°33'0 0.0
2017-Apr-19 05:58N 53°35' E 008°33'0 0.0
2017-Apr-19 05:28N 53°35' E 008°33'0 0.0
2017-Apr-19 04:58N 53°35' E 008°33'0 0.0
2017-Apr-19 04:28N 53°35' E 008°33'0 0.0
2017-Apr-19 03:58N 53°35' E 008°33'0 0.0
2017-Apr-19 03:28N 53°35' E 008°33'0 0.0
2017-Apr-19 02:58N 53°35' E 008°33'0 0.0
2017-Apr-19 02:28N 53°35' E 008°33'0 0.0
2017-Apr-19 01:58N 53°35' E 008°33'0 0.0
2017-Apr-19 01:28N 53°35' E 008°33'0 0.8
2017-Apr-19 01:00N 53°34' E 008°33'0 0.7
2017-Apr-19 00:30N 53°34' E 008°33'3 5.8
2017-Apr-19 00:00N 53°36' E 008°30'714.3
2017-Apr-18 23:30N 53°41' E 008°21'815.5
2017-Apr-18 23:00N 53°46' E 008°11'815.1
2017-Apr-18 22:30N 53°51' E 008°01'714.0
2017-Apr-18 22:00N 53°52' E 007°50'3 4.8
2017-Apr-18 21:24N 53°55' E 007°48'0 0.2
2017-Apr-18 20:57N 53°55' E 007°48'0 0.1
2017-Apr-18 20:27N 53°55' E 007°48'0 0.0
2017-Apr-18 19:54N 53°55' E 007°48'0 0.0
2017-Apr-18 18:51N 53°55' E 007°48'0 0.0
2017-Apr-18 16:27N 53°55' E 007°48'0 0.0
2017-Apr-18 14:51N 53°55' E 007°48'0 0.0
2017-Apr-18 14:27N 53°55' E 007°48'0 0.0
2017-Apr-18 12:39N 53°55' E 007°48'0 0.0
2017-Apr-18 11:45N 53°55' E 007°48'0 0.0
2017-Apr-18 10:36N 53°55' E 007°48'0 0.0
2017-Apr-18 10:24N 53°55' E 007°48'0 0.1
2017-Apr-18 09:45N 53°55' E 007°48'0 0.1
2017-Apr-18 09:27N 53°55' E 007°48'0 0.1
2017-Apr-18 09:00N 53°55' E 007°48'0 0.1
2017-Apr-18 08:30N 53°55' E 007°48'0 0.2
2017-Apr-18 08:00N 53°55' E 007°48'0 0.1
2017-Apr-18 07:30N 53°55' E 007°48'0 0.1
2017-Apr-18 07:00N 53°55' E 007°48'0 0.0
2017-Apr-18 06:30N 53°55' E 007°48'0 0.0
2017-Apr-18 06:00N 53°55' E 007°48'0 0.0
2017-Apr-18 05:24N 53°55' E 007°48'0 0.0
2017-Apr-18 05:00N 53°55' E 007°48'0 0.1
2017-Apr-18 04:30N 53°55' E 007°48'0 0.3
2017-Apr-18 03:57N 53°55' E 007°49'0 0.1
2017-Apr-18 03:30N 53°55' E 007°48'0 0.0
2017-Apr-18 03:00N 53°55' E 007°48'0 0.1
2017-Apr-18 02:30N 53°55' E 007°49'0 0.0
2017-Apr-18 01:57N 53°55' E 007°48'0 0.0
2017-Apr-18 01:27N 53°55' E 007°49'0 0.0
2017-Apr-18 01:00N 53°55' E 007°49'0 0.0
2017-Apr-17 22:54N 53°55' E 007°49'0 0.2
2017-Apr-17 22:30N 53°55' E 007°48'0 0.0
2017-Apr-17 21:00N 53°55' E 007°49'0 0.0
2017-Apr-17 18:57N 53°55' E 007°49'0 0.0
2017-Apr-17 09:40N 53°55' E 007°49'0 0.0
2017-Apr-17 09:19N 53°55' E 007°49'0 0.0
2017-Apr-17 08:43N 53°55' E 007°49'0 0.2
2017-Apr-17 08:25N 53°55' E 007°49'0 0.2
2017-Apr-17 07:55N 53°55' E 007°49'0 0.0
2017-Apr-17 07:10N 53°55' E 007°49'0 0.0
2017-Apr-17 06:58N 53°55' E 007°49'0 0.0
2017-Apr-16 20:07N 53°55' E 007°49'0 0.0
2017-Apr-16 19:40N 53°55' E 007°49'0 0.0
2017-Apr-16 19:28N 53°55' E 007°49'0 0.0
2017-Apr-16 18:55N 53°55' E 007°49'0 0.0
2017-Apr-16 16:22N 53°55' E 007°49'0 0.1
2017-Apr-16 13:59N 53°55' E 007°49'4 7.4
2017-Apr-16 13:27N 53°54' E 007°42'8816.1
2017-Apr-16 07:59N 53°32' E 005°18'916.6
2017-Apr-16 07:27N 53°29' E 005°04'716.6
2017-Apr-16 07:00N 53°26' E 004°53'1315.2
2017-Apr-16 06:10N 53°17' E 004°38'316.2
2017-Apr-16 05:58N 53°14' E 004°36'716.1
2017-Apr-16 05:30N 53°07' E 004°30'815.8
2017-Apr-16 05:00N 53°01' E 004°24'815.6
2017-Apr-16 04:30N 52°54' E 004°17'815.4
2017-Apr-16 04:00N 52°47' E 004°11'815.1
2017-Apr-16 03:30N 52°41' E 004°03'714.7
2017-Apr-16 03:00N 52°36' E 003°55'714.8
2017-Apr-16 02:30N 52°31' E 003°46'714.6
2017-Apr-16 02:00N 52°26' E 003°37'4914.0
2017-Apr-15 22:28N 51°47' E 002°48'613.8
2017-Apr-15 22:00N 51°41' E 002°44'714.1
2017-Apr-15 21:30N 51°34' E 002°42'714.5
2017-Apr-15 21:00N 51°27' E 002°43'510.2
2017-Apr-15 20:31N 51°22' E 002°46'611.9
2017-Apr-15 20:00N 51°23' E 002°56'612.6
2017-Apr-15 19:30N 51°24' E 003°06'510.6
2017-Apr-15 19:00N 51°21' E 003°12'1 1.7
2017-Apr-15 18:30N 51°20' E 003°13'0 0.0
2017-Apr-15 18:00N 51°20' E 003°13'1 2.1
2017-Apr-15 17:30N 51°19' E 003°13'1 2.1
2017-Apr-15 17:00N 51°18' E 003°14'0 0.0
2017-Apr-15 16:30N 51°18' E 003°14'0 0.0
2017-Apr-15 16:00N 51°18' E 003°14'0 0.0
2017-Apr-15 15:30N 51°18' E 003°14'0 0.0
2017-Apr-15 15:00N 51°18' E 003°14'0 0.0
2017-Apr-15 14:00N 51°18' E 003°14'0 0.0
2017-Apr-15 13:30N 51°18' E 003°14'0 0.0
2017-Apr-15 13:00N 51°18' E 003°14'0 0.0
2017-Apr-15 12:30N 51°18' E 003°14'0 0.0
2017-Apr-15 12:00N 51°18' E 003°14'0 0.0
2017-Apr-15 11:29N 51°18' E 003°14'0 0.0
2017-Apr-15 11:00N 51°18' E 003°14'0 0.0
2017-Apr-15 10:29N 51°18' E 003°14'0 0.0
2017-Apr-15 07:33N 51°18' E 003°14'0 0.0
2017-Apr-15 07:30N 51°18' E 003°14'0 0.0
2017-Apr-15 07:00N 51°18' E 003°14'0 0.0
2017-Apr-15 06:30N 51°18' E 003°14'0 0.0
2017-Apr-15 06:00N 51°18' E 003°14'0 0.0
2017-Apr-15 05:30N 51°18' E 003°14'0 0.0
2017-Apr-15 05:00N 51°18' E 003°14'0 0.0
2017-Apr-15 04:30N 51°18' E 003°14'0 0.0
2017-Apr-15 04:00N 51°18' E 003°14'0 0.0
2017-Apr-15 03:30N 51°18' E 003°14'0 0.0
2017-Apr-15 03:00N 51°18' E 003°14'0 0.0
2017-Apr-15 02:30N 51°18' E 003°14'0 0.0
2017-Apr-15 02:00N 51°18' E 003°14'0 0.0
2017-Apr-15 01:30N 51°18' E 003°14'0 0.0
2017-Apr-15 01:00N 51°18' E 003°14'0 0.0
2017-Apr-15 00:30N 51°18' E 003°14'0 0.0
2017-Apr-14 23:57N 51°18' E 003°14'0 0.0
2017-Apr-14 23:30N 51°18' E 003°14'0 0.0
2017-Apr-14 23:00N 51°18' E 003°14'0 0.0
2017-Apr-14 22:30N 51°18' E 003°14'0 0.0
2017-Apr-14 22:00N 51°18' E 003°14'0 0.0
2017-Apr-14 21:28N 51°18' E 003°14'0 0.0
2017-Apr-14 20:52N 51°18' E 003°14'0 0.0
2017-Apr-14 20:28N 51°18' E 003°14'0 0.0
2017-Apr-14 19:58N 51°18' E 003°14'0 0.0
2017-Apr-14 19:28N 51°18' E 003°14'0 0.0
2017-Apr-14 18:58N 51°18' E 003°14'0 0.0
2017-Apr-14 18:30N 51°18' E 003°14'1 1.8
2017-Apr-14 18:00N 51°19' E 003°13'1 2.4
2017-Apr-14 17:30N 51°20' E 003°13'0 0.0
2017-Apr-14 17:00N 51°20' E 003°13'0 0.0
2017-Apr-14 16:30N 51°20' E 003°13'1 1.9
2017-Apr-14 16:00N 51°21' E 003°12'5 9.2
2017-Apr-14 15:30N 51°24' E 003°07'612.9
2017-Apr-14 15:01N 51°23' E 002°57'714.6
2017-Apr-14 14:31N 51°22' E 002°45'1010.3
2017-Apr-14 13:30N 51°21' E 002°28'816.5
2017-Apr-14 13:00N 51°17' E 002°17'918.3
2017-Apr-14 12:30N 51°12' E 002°05'918.0
2017-Apr-14 12:00N 51°08' E 001°52'917.9
2017-Apr-14 11:30N 51°02' E 001°42'917.4
2017-Apr-14 11:00N 50°56' E 001°32'816.7
2017-Apr-14 10:30N 50°48' E 001°27'4716.1
2017-Apr-14 07:37N 50°23' E 000°24'516.8
2017-Apr-14 07:18N 50°22' E 000°16'516.5
2017-Apr-14 07:00N 50°21' E 000°09'816.3
2017-Apr-14 06:30N 50°18' W 000°03'816.1
2017-Apr-14 06:00N 50°16' W 000°15'815.6
2017-Apr-14 05:29N 50°14' W 000°27'715.3
2017-Apr-14 05:00N 50°13' W 000°39'714.8
2017-Apr-14 04:30N 50°11' W 000°50'714.4
2017-Apr-14 04:00N 50°09' W 001°01'714.1
2017-Apr-14 03:30N 50°07' W 001°11'714.0
2017-Apr-14 03:00N 50°05' W 001°22'714.0
2017-Apr-14 02:30N 50°02' W 001°32'714.3
2017-Apr-14 02:00N 50°00' W 001°43'4116.3
2017-Apr-13 23:28N 49°49' W 002°45'817.4
2017-Apr-13 23:00N 49°49' W 002°57'917.6
2017-Apr-13 22:30N 49°49' W 003°11'917.7
2017-Apr-13 22:00N 49°50' W 003°24'917.7
2017-Apr-13 21:30N 49°49' W 003°38'918.0
2017-Apr-13 21:00N 49°49' W 003°52'1018.1
2017-Apr-13 20:28N 49°49' W 004°07'918.2
2017-Apr-13 19:58N 49°49' W 004°21'918.3
2017-Apr-13 19:29N 49°49' W 004°35'1618.4
2017-Apr-13 18:37N 49°51' W 004°60'417.9
2017-Apr-13 18:24N 49°51' W 005°05'47 9.1
2017-Apr-13 13:13N 50°33' W 005°39'417.8
2017-Apr-13 13:00N 50°35' W 005°35'917.9
2017-Apr-13 12:31N 50°41' W 005°24'  
Track history (hours):
 
Tides and Currents Weather Stations Pressure Air Temp Water Temp Dewpoint Dewpoint Depression Visibility Wind Speed Wind Dir Waves Ship Positions

Arcadia Highway

Last reported at 2017-Apr-23 12:29 UTC. Time now 2017-Apr-28 00:31 UTC.
Position N 49°38' W 008°00'.

Length 179 m; draft 8.9 m.

Type: Cargo ship. MMSI: 354342000.

Date/timePositionNaut miles runAvg speedWind from/ knotsBaromVisibWave heightAir tempDewpointWater temp
2017-Apr-23 12:29N 49°38' W 008°00'4815.2
2017-Apr-23 09:20N 49°43' W 006°47'2016.0
2017-Apr-23 08:07N 49°43' W 006°16'416.1
2017-Apr-23 07:52N 49°43' W 006°10'616.1
2017-Apr-23 07:30N 49°43' W 006°01'816.0
2017-Apr-23 06:59N 49°43' W 005°48'1516.1
2017-Apr-23 06:02N 49°43' W 005°25'015.9
2017-Apr-23 06:00N 49°43' W 005°24'1415.1
2017-Apr-23 05:06N 49°42' W 005°03'114.5
2017-Apr-23 05:00N 49°42' W 005°01'814.6
2017-Apr-23 04:27N 49°44' W 004°49'814.6
2017-Apr-23 03:54N 49°46' W 004°37'614.7
2017-Apr-23 03:30N 49°48' W 004°28'714.9
2017-Apr-23 03:00N 49°49' W 004°17'714.9
2017-Apr-23 02:30N 49°51' W 004°06'815.0
2017-Apr-23 02:00N 49°52' W 003°54'815.3
2017-Apr-23 01:30N 49°54' W 003°42'815.6
2017-Apr-23 01:00N 49°55' W 003°31'816.0
2017-Apr-23 00:30N 49°57' W 003°18'816.3
2017-Apr-23 00:00N 49°59' W 003°06'816.5
2017-Apr-22 23:30N 49°59' W 002°53'917.0
2017-Apr-22 23:00N 50°02' W 002°40'817.3
2017-Apr-22 22:30N 50°05' W 002°28'917.4
2017-Apr-22 22:00N 50°08' W 002°16'2316.8
2017-Apr-22 20:39N 50°19' W 001°44'1415.7
2017-Apr-22 19:46N 50°25' W 001°24'415.1
2017-Apr-22 19:30N 50°27' W 001°19'714.6
2017-Apr-22 19:01N 50°31' W 001°09'713.8
2017-Apr-22 18:30N 50°34' W 000°60'612.4
2017-Apr-22 18:01N 50°40' W 000°58'4 8.5
2017-Apr-22 17:31N 50°44' W 001°03'815.5
2017-Apr-22 17:01N 50°46' W 001°15'5 9.7
2017-Apr-22 16:30N 50°50' W 001°19'4 8.7
2017-Apr-22 16:00N 50°53' W 001°24'0 0.5
2017-Apr-22 15:29N 50°53' W 001°24'0 0.0
2017-Apr-22 14:59N 50°53' W 001°24'0 0.0
2017-Apr-22 14:30N 50°53' W 001°24'0 0.0
2017-Apr-22 13:31N 50°53' W 001°24'0 0.0
2017-Apr-22 13:01N 50°53' W 001°24'0 0.0
2017-Apr-22 12:31N 50°53' W 001°24'0 0.0
2017-Apr-22 12:01N 50°53' W 001°24'0 0.0
2017-Apr-22 11:30N 50°53' W 001°24'0 0.0
2017-Apr-22 11:01N 50°53' W 001°24'0 0.0
2017-Apr-22 10:30N 50°53' W 001°24'0 0.0
2017-Apr-22 10:01N 50°53' W 001°24'0 0.0
2017-Apr-22 09:31N 50°53' W 001°24'0 0.0
2017-Apr-22 09:00N 50°53' W 001°24'0 0.0
2017-Apr-22 08:31N 50°53' W 001°24'0 0.0
2017-Apr-22 08:01N 50°53' W 001°24'0 0.0
2017-Apr-22 07:31N 50°53' W 001°24'0 0.0
2017-Apr-22 07:01N 50°53' W 001°24'0 0.0
2017-Apr-22 06:31N 50°53' W 001°24'0 0.0
2017-Apr-22 06:01N 50°53' W 001°24'0 0.0
2017-Apr-22 05:30N 50°53' W 001°24'0 0.0
2017-Apr-22 05:00N 50°53' W 001°24'0 0.0
2017-Apr-22 04:30N 50°53' W 001°24'0 0.0
2017-Apr-22 04:01N 50°53' W 001°24'0 0.0
2017-Apr-22 03:30N 50°53' W 001°24'0 0.0
2017-Apr-22 03:00N 50°53' W 001°24'0 0.0
2017-Apr-22 02:31N 50°53' W 001°24'0 0.0
2017-Apr-22 02:01N 50°53' W 001°24'0 0.0
2017-Apr-22 01:31N 50°53' W 001°24'0 0.0
2017-Apr-22 01:00N 50°53' W 001°24'0 0.0
2017-Apr-22 00:31N 50°53' W 001°24'0 0.0
2017-Apr-22 00:01N 50°53' W 001°24'0 0.0
2017-Apr-21 23:31N 50°53' W 001°24'0 0.0
2017-Apr-21 23:01N 50°53' W 001°24'0 0.2
2017-Apr-21 22:31N 50°53' W 001°24'2 5.0
2017-Apr-21 22:01N 50°51' W 001°21'4 7.6
2017-Apr-21 21:31N 50°48' W 001°17'3 6.8
2017-Apr-21 21:00N 50°46' W 001°14'613.0
2017-Apr-21 20:31N 50°44' W 001°04'611.6
2017-Apr-21 20:01N 50°41' W 000°57'5 9.0
2017-Apr-21 19:31N 50°38' W 000°50'510.7
2017-Apr-21 19:00N 50°37' W 000°42'510.3
2017-Apr-21 18:31N 50°35' W 000°35'3 5.9
2017-Apr-21 18:00N 50°35' W 000°30'611.4
2017-Apr-21 17:30N 50°33' W 000°21'714.0
2017-Apr-21 17:00N 50°33' W 000°10'713.6
2017-Apr-21 16:30N 50°32' E 000°00'713.8
2017-Apr-21 16:00N 50°34' E 000°11'714.0
2017-Apr-21 15:31N 50°37' E 000°21'815.3
2017-Apr-21 15:01N 50°38' E 000°33'816.3
2017-Apr-21 14:31N 50°43' E 000°43'1717.0
2017-Apr-21 13:31N 50°53' E 001°05'917.5
2017-Apr-21 13:00N 50°59' E 001°16'917.5
2017-Apr-21 12:31N 51°04' E 001°27'917.3
2017-Apr-21 12:01N 51°09' E 001°38'816.5
2017-Apr-21 11:31N 51°15' E 001°47'816.2
2017-Apr-21 11:01N 51°22' E 001°54'815.7
2017-Apr-21 10:31N 51°29' E 002°00'815.4
2017-Apr-21 10:00N 51°34' E 002°09'815.2
2017-Apr-21 09:30N 51°40' E 002°17'6915.9
2017-Apr-21 05:08N 52°35' E 003°26'216.4
2017-Apr-21 05:00N 52°37' E 003°28'916.8
2017-Apr-21 04:28N 52°44' E 003°37'816.6
2017-Apr-21 04:01N 52°50' E 003°45'816.5
2017-Apr-21 03:30N 52°56' E 003°54'816.3
2017-Apr-21 03:01N 53°01' E 004°04'816.1
2017-Apr-21 02:31N 53°06' E 004°14'815.4
2017-Apr-21 02:00N 53°12' E 004°24'815.3
2017-Apr-21 01:30N 53°19' E 004°29'1414.3
2017-Apr-21 00:33N 53°29' E 004°44'414.7
2017-Apr-21 00:17N 53°31' E 004°50'10514.9
2017-Apr-20 17:13N 53°59' E 007°41'315.0
2017-Apr-20 17:00N 53°56' E 007°43'611.1
2017-Apr-20 16:25N 53°53' E 007°53'4 9.0
2017-Apr-20 16:00N 53°52' E 007°59'612.7
2017-Apr-20 15:30N 53°48' E 008°08'612.9
2017-Apr-20 15:00N 53°44' E 008°15'1211.9
2017-Apr-20 14:00N 53°36' E 008°31'3 5.1
2017-Apr-20 13:31N 53°34' E 008°33'0 0.9
2017-Apr-20 13:00N 53°34' E 008°33'0 0.7
2017-Apr-20 12:28N 53°35' E 008°33'0 0.0
2017-Apr-20 11:55N 53°35' E 008°33'0 0.0
2017-Apr-20 11:28N 53°35' E 008°33'0 0.0
2017-Apr-20 10:58N 53°35' E 008°33'0 0.0
2017-Apr-20 10:25N 53°35' E 008°33'0 0.0
2017-Apr-20 09:58N 53°35' E 008°33'0 0.0
2017-Apr-20 09:28N 53°35' E 008°33'0 0.0
2017-Apr-20 08:58N 53°35' E 008°33'0 0.0
2017-Apr-20 08:28N 53°35' E 008°33'0 0.0
2017-Apr-20 07:58N 53°35' E 008°33'0 0.0
2017-Apr-20 07:28N 53°35' E 008°33'0 0.0
2017-Apr-20 06:58N 53°35' E 008°33'0 0.0
2017-Apr-20 06:28N 53°35' E 008°33'0 0.0
2017-Apr-20 05:58N 53°35' E 008°33'0 0.0
2017-Apr-20 05:28N 53°35' E 008°33'0 0.0
2017-Apr-20 04:58N 53°35' E 008°33'0 0.0
2017-Apr-20 04:28N 53°35' E 008°33'0 0.0
2017-Apr-20 03:58N 53°35' E 008°33'0 0.0
2017-Apr-20 03:28N 53°35' E 008°33'0 0.0
2017-Apr-20 02:58N 53°35' E 008°33'0 0.0
2017-Apr-20 02:28N 53°35' E 008°33'0 0.0
2017-Apr-20 01:58N 53°35' E 008°33'0 0.0
2017-Apr-20 01:28N 53°35' E 008°33'0 0.0
2017-Apr-20 00:58N 53°35' E 008°33'0 0.0
2017-Apr-20 00:28N 53°35' E 008°33'0 0.0
2017-Apr-19 23:55N 53°35' E 008°33'0 0.0
2017-Apr-19 23:25N 53°35' E 008°33'0 0.0
2017-Apr-19 22:58N 53°35' E 008°33'0 0.0
2017-Apr-19 22:28N 53°35' E 008°33'0 0.0
2017-Apr-19 21:58N 53°35' E 008°33'0 0.0
2017-Apr-19 21:28N 53°35' E 008°33'0 0.0
2017-Apr-19 20:58N 53°35' E 008°33'0 0.0
2017-Apr-19 20:28N 53°35' E 008°33'0 0.0
2017-Apr-19 19:58N 53°35' E 008°33'0 0.0
2017-Apr-19 19:28N 53°35' E 008°33'0 0.0
2017-Apr-19 18:58N 53°35' E 008°33'0 0.0
2017-Apr-19 18:28N 53°35' E 008°33'0 0.0
2017-Apr-19 17:58N 53°35' E 008°33'0 0.0
2017-Apr-19 17:28N 53°35' E 008°33'0 0.0
2017-Apr-19 16:58N 53°35' E 008°33'0 0.0
2017-Apr-19 16:28N 53°35' E 008°33'0 0.0
2017-Apr-19 15:58N 53°35' E 008°33'0 0.0
2017-Apr-19 15:28N 53°35' E 008°33'0 0.0
2017-Apr-19 14:58N 53°35' E 008°33'0 0.0
2017-Apr-19 14:28N 53°35' E 008°33'0 0.0
2017-Apr-19 13:25N 53°35' E 008°33'0 0.0
2017-Apr-19 12:58N 53°35' E 008°33'0 0.0
2017-Apr-19 12:28N 53°35' E 008°33'0 0.0
2017-Apr-19 11:58N 53°35' E 008°33'0 0.0
2017-Apr-19 11:28N 53°35' E 008°33'0 0.0
2017-Apr-19 10:58N 53°35' E 008°33'0 0.0
2017-Apr-19 10:28N 53°35' E 008°33'0 0.0
2017-Apr-19 09:58N 53°35' E 008°33'0 0.0
2017-Apr-19 09:28N 53°35' E 008°33'0 0.0
2017-Apr-19 08:58N 53°35' E 008°33'0 0.0
2017-Apr-19 08:28N 53°35' E 008°33'0 0.0
2017-Apr-19 07:58N 53°35' E 008°33'0 0.0
2017-Apr-19 07:28N 53°35' E 008°33'0 0.0
2017-Apr-19 06:58N 53°35' E 008°33'0 0.0
2017-Apr-19 06:25N 53°35' E 008°33'0 0.0
2017-Apr-19 05:58N 53°35' E 008°33'0 0.0
2017-Apr-19 05:28N 53°35' E 008°33'0 0.0
2017-Apr-19 04:58N 53°35' E 008°33'0 0.0
2017-Apr-19 04:28N 53°35' E 008°33'0 0.0
2017-Apr-19 03:58N 53°35' E 008°33'0 0.0
2017-Apr-19 03:28N 53°35' E 008°33'0 0.0
2017-Apr-19 02:58N 53°35' E 008°33'0 0.0
2017-Apr-19 02:28N 53°35' E 008°33'0 0.0
2017-Apr-19 01:58N 53°35' E 008°33'0 0.0
2017-Apr-19 01:28N 53°35' E 008°33'0 0.8
2017-Apr-19 01:00N 53°34' E 008°33'0 0.7
2017-Apr-19 00:30N 53°34' E 008°33'3 5.8
2017-Apr-19 00:00N 53°36' E 008°30'714.3
2017-Apr-18 23:30N 53°41' E 008°21'815.5
2017-Apr-18 23:00N 53°46' E 008°11'815.1
2017-Apr-18 22:30N 53°51' E 008°01'714.0
2017-Apr-18 22:00N 53°52' E 007°50'3 4.8
2017-Apr-18 21:24N 53°55' E 007°48'0 0.2
2017-Apr-18 20:57N 53°55' E 007°48'0 0.1
2017-Apr-18 20:27N 53°55' E 007°48'0 0.0
2017-Apr-18 19:54N 53°55' E 007°48'0 0.0
2017-Apr-18 18:51N 53°55' E 007°48'0 0.0
2017-Apr-18 16:27N 53°55' E 007°48'0 0.0
2017-Apr-18 14:51N 53°55' E 007°48'0 0.0
2017-Apr-18 14:27N 53°55' E 007°48'0 0.0
2017-Apr-18 12:39N 53°55' E 007°48'0 0.0
2017-Apr-18 11:45N 53°55' E 007°48'0 0.0
2017-Apr-18 10:36N 53°55' E 007°48'0 0.0
2017-Apr-18 10:24N 53°55' E 007°48'0 0.1
2017-Apr-18 09:45N 53°55' E 007°48'0 0.1
2017-Apr-18 09:27N 53°55' E 007°48'0 0.1
2017-Apr-18 09:00N 53°55' E 007°48'0 0.1
2017-Apr-18 08:30N 53°55' E 007°48'0 0.2
2017-Apr-18 08:00N 53°55' E 007°48'0 0.1
2017-Apr-18 07:30N 53°55' E 007°48'0 0.1
2017-Apr-18 07:00N 53°55' E 007°48'0 0.0
2017-Apr-18 06:30N 53°55' E 007°48'0 0.0
2017-Apr-18 06:00N 53°55' E 007°48'0 0.0
2017-Apr-18 05:24N 53°55' E 007°48'0 0.0
2017-Apr-18 05:00N 53°55' E 007°48'0 0.1
2017-Apr-18 04:30N 53°55' E 007°48'0 0.3
2017-Apr-18 03:57N 53°55' E 007°49'0 0.1
2017-Apr-18 03:30N 53°55' E 007°48'0 0.0
2017-Apr-18 03:00N 53°55' E 007°48'0 0.1
2017-Apr-18 02:30N 53°55' E 007°49'0 0.0
2017-Apr-18 01:57N 53°55' E 007°48'0 0.0
2017-Apr-18 01:27N 53°55' E 007°49'0 0.0
2017-Apr-18 01:00N 53°55' E 007°49'0 0.0
2017-Apr-17 22:54N 53°55' E 007°49'0 0.2
2017-Apr-17 22:30N 53°55' E 007°48'0 0.0
2017-Apr-17 21:00N 53°55' E 007°49'0 0.0
2017-Apr-17 18:57N 53°55' E 007°49'0 0.0
2017-Apr-17 09:40N 53°55' E 007°49'0 0.0
2017-Apr-17 09:19N 53°55' E 007°49'0 0.0
2017-Apr-17 08:43N 53°55' E 007°49'0 0.2
2017-Apr-17 08:25N 53°55' E 007°49'0 0.2
2017-Apr-17 07:55N 53°55' E 007°49'0 0.0
2017-Apr-17 07:10N 53°55' E 007°49'0 0.0
2017-Apr-17 06:58N 53°55' E 007°49'0 0.0
2017-Apr-16 20:07N 53°55' E 007°49'0 0.0
2017-Apr-16 19:40N 53°55' E 007°49'0 0.0
2017-Apr-16 19:28N 53°55' E 007°49'0 0.0
2017-Apr-16 18:55N 53°55' E 007°49'0 0.0
2017-Apr-16 16:22N 53°55' E 007°49'0 0.1
2017-Apr-16 13:59N 53°55' E 007°49'4 7.4
2017-Apr-16 13:27N 53°54' E 007°42'8816.1
2017-Apr-16 07:59N 53°32' E 005°18'916.6
2017-Apr-16 07:27N 53°29' E 005°04'716.6
2017-Apr-16 07:00N 53°26' E 004°53'1315.2
2017-Apr-16 06:10N 53°17' E 004°38'316.2
2017-Apr-16 05:58N 53°14' E 004°36'716.1
2017-Apr-16 05:30N 53°07' E 004°30'815.8
2017-Apr-16 05:00N 53°01' E 004°24'815.6
2017-Apr-16 04:30N 52°54' E 004°17'815.4
2017-Apr-16 04:00N 52°47' E 004°11'815.1
2017-Apr-16 03:30N 52°41' E 004°03'714.7
2017-Apr-16 03:00N 52°36' E 003°55'714.8
2017-Apr-16 02:30N 52°31' E 003°46'714.6
2017-Apr-16 02:00N 52°26' E 003°37'4914.0
2017-Apr-15 22:28N 51°47' E 002°48'613.8
2017-Apr-15 22:00N 51°41' E 002°44'714.1
2017-Apr-15 21:30N 51°34' E 002°42'714.5
2017-Apr-15 21:00N 51°27' E 002°43'510.2
2017-Apr-15 20:31N 51°22' E 002°46'611.9
2017-Apr-15 20:00N 51°23' E 002°56'612.6
2017-Apr-15 19:30N 51°24' E 003°06'510.6
2017-Apr-15 19:00N 51°21' E 003°12'1 1.7
2017-Apr-15 18:30N 51°20' E 003°13'0 0.0
2017-Apr-15 18:00N 51°20' E 003°13'1 2.1
2017-Apr-15 17:30N 51°19' E 003°13'1 2.1
2017-Apr-15 17:00N 51°18' E 003°14'0 0.0
2017-Apr-15 16:30N 51°18' E 003°14'0 0.0
2017-Apr-15 16:00N 51°18' E 003°14'0 0.0
2017-Apr-15 15:30N 51°18' E 003°14'0 0.0
2017-Apr-15 15:00N 51°18' E 003°14'0 0.0
2017-Apr-15 14:00N 51°18' E 003°14'0 0.0
2017-Apr-15 13:30N 51°18' E 003°14'0 0.0
2017-Apr-15 13:00N 51°18' E 003°14'0 0.0
2017-Apr-15 12:30N 51°18' E 003°14'0 0.0
2017-Apr-15 12:00N 51°18' E 003°14'0 0.0
2017-Apr-15 11:29N 51°18' E 003°14'0 0.0
2017-Apr-15 11:00N 51°18' E 003°14'0 0.0
2017-Apr-15 10:29N 51°18' E 003°14'0 0.0
2017-Apr-15 07:33N 51°18' E 003°14'0 0.0
2017-Apr-15 07:30N 51°18' E 003°14'0 0.0
2017-Apr-15 07:00N 51°18' E 003°14'0 0.0
2017-Apr-15 06:30N 51°18' E 003°14'0 0.0
2017-Apr-15 06:00N 51°18' E 003°14'0 0.0
2017-Apr-15 05:30N 51°18' E 003°14'0 0.0
2017-Apr-15 05:00N 51°18' E 003°14'0 0.0
2017-Apr-15 04:30N 51°18' E 003°14'0 0.0
2017-Apr-15 04:00N 51°18' E 003°14'0 0.0
2017-Apr-15 03:30N 51°18' E 003°14'0 0.0
2017-Apr-15 03:00N 51°18' E 003°14'0 0.0
2017-Apr-15 02:30N 51°18' E 003°14'0 0.0
2017-Apr-15 02:00N 51°18' E 003°14'0 0.0
2017-Apr-15 01:30N 51°18' E 003°14'0 0.0
2017-Apr-15 01:00N 51°18' E 003°14'0 0.0
2017-Apr-15 00:30N 51°18' E 003°14'0 0.0
2017-Apr-14 23:57N 51°18' E 003°14'0 0.0
2017-Apr-14 23:30N 51°18' E 003°14'0 0.0
2017-Apr-14 23:00N 51°18' E 003°14'0 0.0
2017-Apr-14 22:30N 51°18' E 003°14'0 0.0
2017-Apr-14 22:00N 51°18' E 003°14'0 0.0
2017-Apr-14 21:28N 51°18' E 003°14'0 0.0
2017-Apr-14 20:52N 51°18' E 003°14'0 0.0
2017-Apr-14 20:28N 51°18' E 003°14'0 0.0
2017-Apr-14 19:58N 51°18' E 003°14'0 0.0
2017-Apr-14 19:28N 51°18' E 003°14'0 0.0
2017-Apr-14 18:58N 51°18' E 003°14'0 0.0
2017-Apr-14 18:30N 51°18' E 003°14'1 1.8
2017-Apr-14 18:00N 51°19' E 003°13'1 2.4
2017-Apr-14 17:30N 51°20' E 003°13'0 0.0
2017-Apr-14 17:00N 51°20' E 003°13'0 0.0
2017-Apr-14 16:30N 51°20' E 003°13'1 1.9
2017-Apr-14 16:00N 51°21' E 003°12'5 9.2
2017-Apr-14 15:30N 51°24' E 003°07'612.9
2017-Apr-14 15:01N 51°23' E 002°57'714.6
2017-Apr-14 14:31N 51°22' E 002°45'1010.3
2017-Apr-14 13:30N 51°21' E 002°28'816.5
2017-Apr-14 13:00N 51°17' E 002°17'918.3
2017-Apr-14 12:30N 51°12' E 002°05'918.0
2017-Apr-14 12:00N 51°08' E 001°52'917.9
2017-Apr-14 11:30N 51°02' E 001°42'917.4
2017-Apr-14 11:00N 50°56' E 001°32'816.7
2017-Apr-14 10:30N 50°48' E 001°27'4716.1
2017-Apr-14 07:37N 50°23' E 000°24'516.8
2017-Apr-14 07:18N 50°22' E 000°16'516.5
2017-Apr-14 07:00N 50°21' E 000°09'816.3
2017-Apr-14 06:30N 50°18' W 000°03'816.1
2017-Apr-14 06:00N 50°16' W 000°15'815.6
2017-Apr-14 05:29N 50°14' W 000°27'715.3
2017-Apr-14 05:00N 50°13' W 000°39'714.8
2017-Apr-14 04:30N 50°11' W 000°50'714.4
2017-Apr-14 04:00N 50°09' W 001°01'714.1
2017-Apr-14 03:30N 50°07' W 001°11'714.0
2017-Apr-14 03:00N 50°05' W 001°22'714.0
2017-Apr-14 02:30N 50°02' W 001°32'714.3
2017-Apr-14 02:00N 50°00' W 001°43'4116.3
2017-Apr-13 23:28N 49°49' W 002°45'817.4
2017-Apr-13 23:00N 49°49' W 002°57'917.6
2017-Apr-13 22:30N 49°49' W 003°11'917.7
2017-Apr-13 22:00N 49°50' W 003°24'917.7
2017-Apr-13 21:30N 49°49' W 003°38'918.0
2017-Apr-13 21:00N 49°49' W 003°52'1018.1
2017-Apr-13 20:28N 49°49' W 004°07'918.2
2017-Apr-13 19:58N 49°49' W 004°21'918.3
2017-Apr-13 19:29N 49°49' W 004°35'1618.4
2017-Apr-13 18:37N 49°51' W 004°60'417.9
2017-Apr-13 18:24N 49°51' W 005°05'47 9.1
2017-Apr-13 13:13N 50°33' W 005°39'417.8
2017-Apr-13 13:00N 50°35' W 005°35'917.9
2017-Apr-13 12:31N 50°41' W 005°24'  

Dump ship's entire track history